Time;durP1;ratioP1;P1;durP2;ratioP2;P2;SDS_P1;SDS_P2;PMS_P1;PMS_P2;Temp;Humidity;BMP_temperature;BMP_pressure;BME280_temperature;BME280_humidity;BME280_pressure;Samples;Min_cycle;Max_cycle;Signal;HPM_P1;HPM_P2
2023/05/16 00:01:22;;;;;;;27.95;17.83;;;10.80;99.90;;;;;;5099775;28;20273;-83
2023/05/16 00:03:47;;;;;;;30.17;18.05;;;10.70;99.90;;;;;;5100109;28;20269;-80
2023/05/16 00:06:14;;;;;;;35.80;18.05;;;10.60;99.90;;;;;;5119449;28;20199;-81
2023/05/16 00:08:40;;;;;;;29.83;18.38;;;10.50;99.90;;;;;;5101094;28;20172;-81
2023/05/16 00:11:06;;;;;;;28.63;16.85;;;10.50;99.90;;;;;;5119974;28;20176;-81
2023/05/16 00:13:31;;;;;;;30.02;18.58;;;10.40;99.90;;;;;;5102662;28;20177;-81
2023/05/16 00:15:58;;;;;;;32.90;17.15;;;10.40;99.90;;;;;;5103243;28;20203;-80
2023/05/16 00:18:25;;;;;;;33.53;17.13;;;10.30;99.90;;;;;;5105345;28;20172;-81
2023/05/16 00:20:52;;;;;;;31.27;16.45;;;10.30;99.90;;;;;;5105270;28;20176;-80
2023/05/16 00:23:18;;;;;;;30.15;16.63;;;10.30;99.90;;;;;;5122249;28;20175;-80
2023/05/16 00:25:45;;;;;;;29.50;16.13;;;10.30;99.90;;;;;;5123198;28;20570;-81
2023/05/16 00:28:11;;;;;;;30.45;17.80;;;10.20;99.90;;;;;;5104995;28;20586;-81
2023/05/16 00:30:37;;;;;;;27.25;16.25;;;10.20;99.90;;;;;;5106438;28;20217;-81
2023/05/16 00:33:03;;;;;;;26.30;16.27;;;10.10;99.90;;;;;;5122943;28;20173;-80
2023/05/16 00:35:28;;;;;;;25.83;15.93;;;10.10;99.90;;;;;;5103356;28;20249;-81
2023/05/16 00:37:55;;;;;;;32.60;16.93;;;10.10;99.90;;;;;;5104297;28;20289;-81
2023/05/16 00:40:21;;;;;;;26.73;15.67;;;10.00;99.90;;;;;;5122476;28;20177;-81
2023/05/16 00:42:46;;;;;;;31.50;16.67;;;10.00;99.90;;;;;;5104645;28;20267;-81
2023/05/16 00:45:12;;;;;;;28.00;16.17;;;10.00;99.90;;;;;;5123234;28;20636;-81
2023/05/16 00:47:38;;;;;;;29.73;16.00;;;10.10;99.90;;;;;;5123407;28;20216;-80
2023/05/16 00:50:04;;;;;;;24.57;15.30;;;10.20;99.90;;;;;;5122838;28;20535;-80
2023/05/16 00:52:32;;;;;;;32.92;14.93;;;10.20;99.90;;;;;;5104051;28;20180;-80
2023/05/16 00:54:58;;;;;;;26.38;15.70;;;10.10;99.90;;;;;;5102488;28;20203;-79
2023/05/16 00:57:24;;;;;;;25.17;15.05;;;10.20;99.90;;;;;;5122248;28;20176;-80
2023/05/16 00:59:50;;;;;;;22.33;14.45;;;10.10;99.90;;;;;;5102167;28;20192;-79
2023/05/16 01:02:16;;;;;;;21.48;14.07;;;10.10;99.90;;;;;;5117389;28;20640;-81
2023/05/16 01:04:43;;;;;;;23.17;14.07;;;10.10;99.90;;;;;;5116770;28;20215;-80
2023/05/16 01:07:09;;;;;;;19.92;13.70;;;10.00;99.90;;;;;;5098620;28;20644;-81
2023/05/16 01:09:35;;;;;;;21.48;13.70;;;10.00;99.90;;;;;;5098058;28;20175;-81
2023/05/16 01:12:11;;;;;;;23.53;14.50;;;10.00;99.90;;;;;;5097950;28;20183;-81
2023/05/16 01:15:01;;;;;;;18.77;13.33;;;10.00;99.90;;;;;;5098014;28;20188;-80
2023/05/16 01:17:45;;;;;;;22.05;14.75;;;9.90;99.90;;;;;;5116044;28;20249;-81
2023/05/16 01:20:47;;;;;;;19.45;14.25;;;9.90;99.90;;;;;;5097822;28;20210;-81
2023/05/16 01:23:15;;;;;;;21.97;14.33;;;9.90;99.90;;;;;;5097362;28;20168;-81
2023/05/16 01:25:44;;;;;;;21.90;14.67;;;9.80;99.90;;;;;;5097643;28;20222;-81
2023/05/16 01:28:12;;;;;;;18.57;13.07;;;9.80;99.90;;;;;;5116100;28;20176;-81
2023/05/16 01:30:42;;;;;;;20.73;12.53;;;9.80;99.90;;;;;;5097620;28;20176;-80
2023/05/16 01:33:09;;;;;;;17.47;12.27;;;9.70;99.90;;;;;;5097900;28;20605;-81
2023/05/16 01:35:46;;;;;;;17.33;12.63;;;9.80;99.90;;;;;;5117291;28;20341;-81
2023/05/16 01:38:14;;;;;;;18.67;12.50;;;9.80;99.90;;;;;;5097685;28;20214;-81
2023/05/16 01:41:03;;;;;;;23.03;13.70;;;9.70;99.90;;;;;;5097663;28;20185;-81
2023/05/16 01:43:34;;;;;;;17.83;11.50;;;9.70;99.90;;;;;;5116372;28;20279;-82
2023/05/16 01:46:15;;;;;;;17.87;12.20;;;9.80;99.90;;;;;;5098093;28;20196;-81
2023/05/16 01:48:52;;;;;;;17.70;11.23;;;9.70;99.90;;;;;;5116190;28;20160;-81
2023/05/16 01:51:21;;;;;;;17.55;10.90;;;9.70;99.90;;;;;;5115729;28;20156;-81
2023/05/16 01:53:50;;;;;;;19.80;12.03;;;9.70;99.90;;;;;;5115881;28;20176;-81
2023/05/16 01:56:17;;;;;;;21.30;11.43;;;9.70;99.90;;;;;;5097435;28;20200;-81
2023/05/16 01:58:43;;;;;;;20.37;12.07;;;9.60;99.90;;;;;;5096797;28;20186;-81
2023/05/16 02:01:10;;;;;;;16.67;10.27;;;9.70;99.90;;;;;;5115420;28;20536;-80
2023/05/16 02:03:36;;;;;;;14.47;9.40;;;9.60;99.90;;;;;;5118842;28;20192;-78
2023/05/16 02:06:02;;;;;;;12.63;9.43;;;9.60;99.90;;;;;;5087819;28;20676;-79
2023/05/16 02:08:28;;;;;;;13.33;7.87;;;9.60;99.90;;;;;;5077966;28;20227;-80
2023/05/16 02:10:54;;;;;;;9.80;7.23;;;9.40;99.90;;;;;;5078268;28;20256;-80
2023/05/16 02:13:19;;;;;;;7.83;6.27;;;9.40;99.90;;;;;;5095827;28;20304;-80
2023/05/16 02:15:45;;;;;;;7.77;6.00;;;9.30;99.90;;;;;;5099993;28;20723;-79
2023/05/16 02:18:11;;;;;;;8.73;6.03;;;9.30;99.90;;;;;;5081852;28;20198;-79
2023/05/16 02:20:38;;;;;;;7.23;5.70;;;9.20;99.90;;;;;;5081138;28;20177;-80
2023/05/16 02:23:04;;;;;;;9.33;5.33;;;9.10;99.90;;;;;;5098626;28;20173;-79
2023/05/16 02:25:30;;;;;;;9.57;6.50;;;9.20;99.90;;;;;;5080453;28;20217;-79
2023/05/16 02:27:55;;;;;;;12.87;8.03;;;9.10;99.90;;;;;;5098175;28;20565;-80
2023/05/16 02:30:21;;;;;;;12.17;9.40;;;9.20;99.90;;;;;;5081700;28;20173;-79
2023/05/16 02:32:47;;;;;;;15.20;8.73;;;9.10;99.90;;;;;;5081212;28;20172;-80
2023/05/16 02:35:14;;;;;;;11.77;7.23;;;9.10;99.90;;;;;;5086059;28;20555;-80
2023/05/16 02:37:40;;;;;;;13.30;6.83;;;9.00;99.90;;;;;;5100177;28;20225;-80
2023/05/16 02:40:07;;;;;;;12.63;6.77;;;8.90;99.90;;;;;;5119193;28;20169;-80
2023/05/16 02:42:33;;;;;;;13.40;7.00;;;8.90;99.90;;;;;;5100214;28;20199;-80
2023/05/16 02:44:59;;;;;;;23.37;7.23;;;8.70;99.90;;;;;;5118909;28;20199;-80
2023/05/16 02:47:25;;;;;;;14.87;6.37;;;8.70;99.90;;;;;;5100425;28;20255;-80
2023/05/16 02:49:51;;;;;;;14.07;6.70;;;8.60;99.90;;;;;;5100402;28;20540;-80
2023/05/16 02:52:20;;;;;;;13.77;6.60;;;8.50;99.90;;;;;;5119087;28;20179;-80
2023/05/16 02:54:46;;;;;;;15.00;7.03;;;8.50;99.90;;;;;;5118882;28;20188;-80
2023/05/16 02:57:12;;;;;;;14.60;6.70;;;8.40;99.90;;;;;;5119734;28;20176;-80
2023/05/16 02:59:38;;;;;;;17.63;7.33;;;8.40;99.90;;;;;;5118919;28;20678;-79
2023/05/16 03:02:03;;;;;;;15.27;7.53;;;8.40;99.90;;;;;;5118232;28;20184;-80
2023/05/16 03:04:29;;;;;;;17.17;7.67;;;8.40;99.90;;;;;;5100319;28;20208;-79
2023/05/16 03:06:55;;;;;;;19.43;7.13;;;8.30;99.90;;;;;;5100083;28;20648;-80
2023/05/16 03:09:21;;;;;;;20.17;8.00;;;8.40;99.90;;;;;;5118229;28;20213;-80
2023/05/16 03:11:47;;;;;;;17.00;8.17;;;8.40;99.90;;;;;;5100017;28;20640;-80
2023/05/16 03:14:13;;;;;;;20.10;8.83;;;8.40;99.90;;;;;;5099457;28;20184;-80
2023/05/16 03:16:42;;;;;;;18.60;8.57;;;8.30;99.90;;;;;;5099423;28;20180;-80
2023/05/16 03:19:08;;;;;;;24.27;8.67;;;8.30;99.90;;;;;;5099650;28;20290;-80
2023/05/16 03:21:33;;;;;;;25.33;9.30;;;8.40;99.90;;;;;;5099648;28;20176;-80
2023/05/16 03:24:04;;;;;;;24.80;10.00;;;8.40;99.90;;;;;;5118057;28;20192;-79
2023/05/16 03:26:29;;;;;;;27.47;10.43;;;8.40;99.90;;;;;;5098291;28;20196;-79
2023/05/16 03:28:55;;;;;;;20.10;10.83;;;8.40;99.90;;;;;;5117840;28;20171;-79
2023/05/16 03:31:21;;;;;;;22.50;10.33;;;8.30;99.90;;;;;;5117427;28;20580;-79
2023/05/16 03:33:47;;;;;;;18.63;10.00;;;8.30;99.90;;;;;;5099571;28;20184;-80
2023/05/16 03:36:13;;;;;;;19.50;10.07;;;8.30;99.90;;;;;;5099642;28;20672;-79
2023/05/16 03:38:39;;;;;;;20.57;10.33;;;8.40;99.90;;;;;;5099385;28;20182;-79
2023/05/16 03:41:05;;;;;;;25.97;10.17;;;8.30;99.90;;;;;;5099597;28;20200;-79
2023/05/16 03:43:31;;;;;;;22.83;11.80;;;8.30;99.90;;;;;;5098880;28;20188;-79
2023/05/16 03:45:56;;;;;;;28.67;11.23;;;8.30;99.90;;;;;;5117523;28;20184;-79
2023/05/16 03:48:22;;;;;;;22.93;10.63;;;8.30;99.90;;;;;;5099157;28;20644;-80
2023/05/16 03:50:48;;;;;;;22.33;9.97;;;8.30;99.90;;;;;;5119022;28;20169;-78
2023/05/16 03:53:14;;;;;;;25.87;11.07;;;8.30;99.90;;;;;;5100778;28;20640;-79
2023/05/16 03:55:40;;;;;;;26.63;10.40;;;8.30;99.90;;;;;;5118913;28;20192;-78
2023/05/16 03:58:06;;;;;;;23.43;10.57;;;8.30;99.90;;;;;;5100551;28;20173;-79
2023/05/16 04:00:33;;;;;;;30.33;10.33;;;8.20;99.90;;;;;;5119886;28;20317;-79
2023/05/16 04:02:59;;;;;;;34.00;10.27;;;8.30;99.90;;;;;;5102581;28;20648;-79
2023/05/16 04:05:25;;;;;;;23.50;10.77;;;8.30;99.90;;;;;;5119070;28;20215;-78
2023/05/16 04:07:50;;;;;;;26.93;10.63;;;8.30;99.90;;;;;;5119068;28;20232;-78
2023/05/16 04:10:16;;;;;;;31.30;10.47;;;8.20;99.90;;;;;;5118510;28;20193;-78
2023/05/16 04:12:43;;;;;;;21.43;10.17;;;8.20;99.90;;;;;;5101208;28;20624;-78
2023/05/16 04:15:09;;;;;;;22.53;9.17;;;8.10;99.90;;;;;;5098628;28;20612;-79
2023/05/16 04:17:35;;;;;;;21.67;9.20;;;8.10;99.90;;;;;;5098207;28;20176;-78
2023/05/16 04:20:02;;;;;;;24.27;8.80;;;8.10;99.90;;;;;;5116456;28;20183;-78
2023/05/16 04:22:28;;;;;;;20.30;9.87;;;8.10;99.90;;;;;;5097562;28;20229;-78
2023/05/16 04:24:53;;;;;;;22.43;8.63;;;8.10;99.90;;;;;;5116997;28;20200;-78
2023/05/16 04:27:19;;;;;;;18.97;8.63;;;8.10;99.90;;;;;;5098914;28;20177;-78
2023/05/16 04:29:45;;;;;;;22.13;8.93;;;8.00;99.90;;;;;;5098453;28;20243;-78
2023/05/16 04:32:11;;;;;;;24.50;9.77;;;8.00;99.90;;;;;;5097257;28;20169;-78
2023/05/16 04:34:37;;;;;;;25.00;7.77;;;8.00;99.90;;;;;;5115741;28;20195;-79
2023/05/16 04:37:04;;;;;;;17.50;7.67;;;7.90;99.90;;;;;;5116003;28;20252;-78
2023/05/16 04:39:31;;;;;;;20.50;7.43;;;7.90;99.90;;;;;;5097686;28;20229;-78
2023/05/16 04:41:58;;;;;;;23.23;7.20;;;7.80;99.90;;;;;;5097449;28;20192;-78
2023/05/16 04:44:25;;;;;;;32.77;9.33;;;7.80;99.90;;;;;;5115240;28;20216;-78
2023/05/16 04:46:52;;;;;;;26.57;7.87;;;7.80;99.90;;;;;;5094973;28;20180;-78
2023/05/16 04:49:18;;;;;;;23.33;7.73;;;7.70;99.90;;;;;;5095346;28;20268;-80
2023/05/16 04:51:44;;;;;;;24.73;8.83;;;7.80;99.90;;;;;;5114883;28;20169;-78
2023/05/16 04:54:10;;;;;;;22.13;7.50;;;7.70;99.90;;;;;;5097625;28;20183;-78
2023/05/16 04:56:36;;;;;;;27.13;6.73;;;7.60;99.90;;;;;;5116016;28;20164;-79
2023/05/16 04:59:03;;;;;;;25.93;7.93;;;7.60;99.90;;;;;;5097062;28;20183;-77
2023/05/16 05:01:29;;;;;;;19.27;6.60;;;7.60;99.90;;;;;;5097437;28;20180;-79
2023/05/16 05:03:55;;;;;;;17.63;7.40;;;7.50;99.90;;;;;;5097769;28;20336;-79
2023/05/16 05:06:20;;;;;;;23.27;6.90;;;7.60;99.90;;;;;;5097528;28;20264;-79
2023/05/16 05:08:46;;;;;;;16.80;6.97;;;7.50;99.90;;;;;;5098237;28;20243;-79
2023/05/16 05:11:13;;;;;;;20.83;7.07;;;7.40;99.90;;;;;;5115913;28;20655;-79
2023/05/16 05:13:38;;;;;;;21.23;7.13;;;7.40;99.90;;;;;;5115979;28;20172;-79
2023/05/16 05:16:04;;;;;;;27.53;7.87;;;7.50;99.90;;;;;;5096802;28;20254;-79
2023/05/16 05:18:30;;;;;;;22.13;7.57;;;7.60;99.90;;;;;;5115174;28;20180;-79
2023/05/16 05:20:57;;;;;;;18.33;7.30;;;7.60;99.90;;;;;;5115319;28;20254;-79
2023/05/16 05:23:22;;;;;;;20.17;7.70;;;7.50;99.90;;;;;;5114998;28;20181;-78
2023/05/16 05:25:49;;;;;;;23.83;7.13;;;7.60;99.90;;;;;;5114491;28;20192;-76
2023/05/16 05:28:15;;;;;;;24.23;7.90;;;7.60;99.90;;;;;;5114440;28;20558;-76
2023/05/16 05:30:41;;;;;;;27.10;7.50;;;7.60;99.90;;;;;;5096240;28;20234;-76
2023/05/16 05:33:06;;;;;;;16.30;6.60;;;7.60;99.90;;;;;;5096845;28;20198;-76
2023/05/16 05:35:32;;;;;;;19.77;7.40;;;7.60;99.90;;;;;;5087766;28;20201;-76
2023/05/16 05:37:58;;;;;;;24.13;8.03;;;7.70;99.90;;;;;;5075834;28;20703;-76
2023/05/16 05:40:24;;;;;;;23.00;8.93;;;7.70;99.90;;;;;;5076264;28;20192;-76
2023/05/16 05:42:50;;;;;;;24.03;7.30;;;7.80;99.90;;;;;;5094247;28;20333;-77
2023/05/16 05:45:16;;;;;;;27.60;9.13;;;7.70;99.90;;;;;;5072364;28;20242;-75
2023/05/16 05:47:42;;;;;;;25.23;8.30;;;7.80;99.90;;;;;;5074852;28;20181;-76
2023/05/16 05:50:10;;;;;;;29.73;8.60;;;7.80;99.90;;;;;;5079463;28;20173;-77
2023/05/16 05:52:36;;;;;;;17.27;7.33;;;7.70;99.90;;;;;;5079717;28;20548;-76
2023/05/16 05:55:03;;;;;;;19.43;6.97;;;7.90;99.90;;;;;;5079770;28;20197;-77
2023/05/16 05:57:28;;;;;;;31.17;8.33;;;8.10;99.90;;;;;;5098311;28;20192;-76
2023/05/16 05:59:54;;;;;;;26.00;7.30;;;8.00;99.90;;;;;;5098190;28;20649;-76
2023/05/16 06:02:20;;;;;;;17.87;7.13;;;8.10;99.90;;;;;;5080066;28;20648;-77
2023/05/16 06:04:46;;;;;;;28.63;7.67;;;8.10;99.90;;;;;;5098233;28;20209;-76
2023/05/16 06:07:13;;;;;;;20.20;7.17;;;8.10;99.90;;;;;;5080513;28;20177;-77
2023/05/16 06:09:39;;;;;;;17.20;6.10;;;8.10;99.90;;;;;;5080020;28;20176;-76
2023/05/16 06:12:06;;;;;;;17.23;6.60;;;8.20;99.90;;;;;;5097772;28;20170;-77
2023/05/16 06:14:31;;;;;;;18.10;7.40;;;8.30;99.90;;;;;;5079589;28;20204;-74
2023/05/16 06:16:57;;;;;;;25.00;7.23;;;8.40;99.90;;;;;;5097786;28;20173;-74
2023/05/16 06:19:23;;;;;;;17.33;7.07;;;8.50;99.90;;;;;;5098504;28;20201;-73
2023/05/16 06:21:49;;;;;;;15.27;6.07;;;8.50;99.90;;;;;;5097869;28;20500;-73
2023/05/16 06:24:14;;;;;;;14.23;6.13;;;8.40;99.90;;;;;;5097437;28;20193;-73
2023/05/16 06:26:40;;;;;;;16.87;6.43;;;8.40;99.90;;;;;;5097405;28;20226;-73
2023/05/16 06:29:06;;;;;;;22.30;6.10;;;8.50;99.90;;;;;;5097134;28;20173;-73
2023/05/16 06:31:32;;;;;;;18.07;6.10;;;8.60;99.90;;;;;;5078736;28;20177;-73
2023/05/16 06:33:57;;;;;;;16.87;5.70;;;8.60;99.90;;;;;;5078684;28;20173;-73
2023/05/16 06:36:23;;;;;;;17.47;5.93;;;8.70;99.90;;;;;;5078652;28;20259;-73
2023/05/16 06:38:49;;;;;;;20.90;6.23;;;8.70;99.90;;;;;;5097120;28;20173;-74
2023/05/16 06:41:15;;;;;;;13.10;5.37;;;8.80;99.90;;;;;;5097146;28;20278;-73
2023/05/16 06:43:41;;;;;;;21.33;5.93;;;8.80;99.90;;;;;;5097015;28;20327;-73
2023/05/16 06:46:07;;;;;;;11.27;5.30;;;8.80;99.90;;;;;;5078811;28;20209;-74
2023/05/16 06:48:32;;;;;;;14.73;5.60;;;8.80;99.90;;;;;;5097400;28;20181;-74
2023/05/16 06:50:58;;;;;;;14.03;5.83;;;8.80;99.90;;;;;;5096679;28;20183;-74
2023/05/16 06:53:25;;;;;;;11.57;5.40;;;8.90;99.90;;;;;;5096627;28;20253;-74
2023/05/16 06:55:50;;;;;;;11.07;4.87;;;8.90;99.90;;;;;;5095216;28;20677;-73
2023/05/16 06:58:16;;;;;;;12.27;4.83;;;9.10;99.90;;;;;;5096660;28;20158;-74
2023/05/16 07:00:42;;;;;;;12.80;5.53;;;9.10;99.90;;;;;;5096356;28;20196;-74
2023/05/16 07:03:08;;;;;;;15.47;5.67;;;9.10;99.90;;;;;;5095273;28;20228;-74
2023/05/16 07:05:34;;;;;;;15.23;5.17;;;9.10;99.90;;;;;;5105024;28;20584;-74
2023/05/16 07:08:00;;;;;;;13.63;5.57;;;9.00;99.90;;;;;;5116814;28;20177;-74
2023/05/16 07:10:26;;;;;;;16.07;5.77;;;8.90;99.90;;;;;;5116783;28;20549;-73
2023/05/16 07:12:51;;;;;;;21.77;5.80;;;8.90;99.90;;;;;;5098382;28;20234;-74
2023/05/16 07:15:17;;;;;;;18.53;5.33;;;9.00;99.90;;;;;;5116473;28;20192;-74
2023/05/16 07:17:43;;;;;;;15.17;6.03;;;9.00;99.90;;;;;;5116600;28;20254;-74
2023/05/16 07:20:12;;;;;;;16.40;5.97;;;9.00;99.90;;;;;;5116875;28;20184;-74
2023/05/16 07:22:38;;;;;;;10.77;4.90;;;9.10;99.90;;;;;;5098212;28;20180;-74
2023/05/16 07:25:05;;;;;;;12.60;5.30;;;9.10;99.90;;;;;;5116626;28;20552;-74
2023/05/16 07:27:31;;;;;;;13.90;5.40;;;9.20;99.90;;;;;;5098193;28;20305;-74
2023/05/16 07:29:57;;;;;;;14.87;4.07;;;9.30;99.90;;;;;;5116635;28;20190;-76
2023/05/16 07:32:22;;;;;;;22.80;4.90;;;9.60;99.90;;;;;;5116668;28;20177;-75
2023/05/16 07:34:48;;;;;;;16.90;5.60;;;9.80;99.90;;;;;;5116563;28;20614;-76
2023/05/16 07:37:15;;;;;;;11.33;4.43;;;10.00;99.90;;;;;;5098135;28;20774;-75
2023/05/16 07:39:41;;;;;;;7.93;4.13;;;10.30;99.90;;;;;;5098057;28;20188;-76
2023/05/16 07:42:07;;;;;;;18.73;4.77;;;10.40;99.90;;;;;;5116092;28;20192;-75
2023/05/16 07:44:34;;;;;;;13.07;5.10;;;10.40;99.90;;;;;;5116313;28;20228;-76
2023/05/16 07:47:00;;;;;;;17.20;5.22;;;10.50;99.90;;;;;;5097638;28;20180;-74
2023/05/16 07:49:26;;;;;;;13.83;4.50;;;10.40;99.90;;;;;;5097909;28;20671;-74
2023/05/16 07:51:52;;;;;;;14.53;4.67;;;10.30;99.90;;;;;;5116269;28;20169;-74
2023/05/16 07:54:17;;;;;;;10.70;4.57;;;10.20;99.90;;;;;;5097642;28;20321;-75
2023/05/16 07:56:43;;;;;;;12.83;4.57;;;10.10;99.90;;;;;;5115884;28;20172;-75
2023/05/16 07:59:09;;;;;;;14.87;5.60;;;9.90;99.90;;;;;;5116323;28;20177;-74
2023/05/16 08:01:35;;;;;;;8.97;4.00;;;9.70;99.90;;;;;;5098656;28;20180;-76
2023/05/16 08:04:01;;;;;;;17.83;4.90;;;9.50;99.90;;;;;;5117002;28;20196;-76
2023/05/16 08:06:28;;;;;;;8.87;4.70;;;9.50;99.90;;;;;;5101599;28;20193;-75
2023/05/16 08:08:54;;;;;;;14.83;4.60;;;9.50;99.90;;;;;;5078013;28;20169;-75
2023/05/16 08:11:21;;;;;;;15.67;4.90;;;9.60;99.90;;;;;;5096705;28;20558;-75
2023/05/16 08:13:47;;;;;;;8.90;4.07;;;9.80;99.90;;;;;;5095938;28;20177;-75
2023/05/16 08:16:13;;;;;;;11.97;4.30;;;10.00;99.90;;;;;;5077649;28;20578;-75
2023/05/16 08:18:39;;;;;;;11.97;3.73;;;10.30;64.90;;;;;;5095700;28;20170;-75
2023/05/16 08:21:05;;;;;;;14.93;4.03;;;10.50;99.90;;;;;;5077870;28;20645;-75
2023/05/16 08:23:31;;;;;;;10.13;3.80;;;10.90;99.90;;;;;;5095440;28;20181;-75
2023/05/16 08:25:57;;;;;;;10.57;4.18;;;11.60;99.90;;;;;;5095156;28;20189;-75
2023/05/16 08:28:23;;;;;;;8.07;3.60;;;12.10;1.00;;;;;;5095072;28;20660;-76
2023/05/16 08:30:49;;;;;;;9.55;3.40;;;12.30;99.90;;;;;;5095250;28;20169;-75
2023/05/16 08:33:15;;;;;;;6.70;3.55;;;12.50;99.90;;;;;;5095013;28;20170;-75
2023/05/16 08:35:44;;;;;;;11.65;3.50;;;13.20;1.00;;;;;;5104030;28;20692;-76
2023/05/16 08:38:10;;;;;;;7.07;3.30;;;13.60;99.90;;;;;;5096666;28;20180;-75
2023/05/16 08:40:36;;;;;;;12.02;4.13;;;13.50;99.90;;;;;;5115333;28;20267;-76
2023/05/16 08:43:02;;;;;;;9.77;3.50;;;13.50;1.00;;;;;;5096903;28;20185;-76
2023/05/16 08:45:30;;;;;;;7.45;3.42;;;14.10;1.00;;;;;;5114799;28;20204;-76
2023/05/16 08:47:56;;;;;;;7.00;3.63;;;14.70;99.90;;;;;;5114877;28;20172;-76
2023/05/16 08:50:23;;;;;;;10.55;3.45;;;15.20;99.90;;;;;;5115302;28;20169;-75
2023/05/16 08:52:52;;;;;;;11.75;3.20;;;15.70;1.00;;;;;;5115229;28;20636;-76
2023/05/16 08:55:20;;;;;;;10.65;3.45;;;15.50;1.00;;;;;;5114981;28;20196;-77
2023/05/16 08:57:49;;;;;;;8.60;3.90;;;15.40;1.00;;;;;;5115322;28;20225;-75
2023/05/16 09:00:18;;;;;;;10.98;4.20;;;15.20;99.90;;;;;;5108796;28;20208;-76
2023/05/16 09:02:44;;;;;;;9.95;4.25;;;15.00;99.90;;;;;;5113388;28;20176;-76
2023/05/16 09:05:12;;;;;;;11.85;4.10;;;14.40;99.90;;;;;;5109678;28;20209;-76
2023/05/16 09:07:39;;;;;;;9.15;4.47;;;13.20;1.00;;;;;;5094175;28;20527;-76
2023/05/16 09:10:07;;;;;;;10.43;3.92;;;12.70;1.00;;;;;;5092929;28;20669;-75
2023/05/16 09:12:33;;;;;;;8.48;3.50;;;12.30;99.90;;;;;;5094042;28;20166;-76
2023/05/16 09:15:04;;;;;;;9.07;3.65;;;12.00;1.00;;;;;;5093141;28;20285;-76
2023/05/16 09:17:46;;;;;;;3.47;2.78;;;11.90;99.90;;;;;;5093973;28;20179;-74
2023/05/16 09:20:16;;;;;;;12.00;3.20;;;11.90;1.00;;;;;;5093046;28;20173;-75
2023/05/16 09:22:53;;;;;;;9.48;2.92;;;12.00;99.90;;;;;;5094268;28;20227;-75
2023/05/16 09:25:21;;;;;;;9.52;3.80;;;12.80;99.90;;;;;;5092381;28;20586;-75
2023/05/16 09:27:47;;;;;;;11.10;4.03;;;14.00;87.90;;;;;;5093171;28;20169;-76
2023/05/16 09:30:15;;;;;;;11.13;3.42;;;14.20;99.90;;;;;;5096275;28;20173;-76
2023/05/16 09:32:44;;;;;;;7.80;2.80;;;14.00;99.90;;;;;;5095231;28;20159;-77
2023/05/16 09:35:15;;;;;;;4.53;2.97;;;13.40;1.00;;;;;;5098173;28;20206;-77
2023/05/16 09:37:45;;;;;;;4.38;2.63;;;13.20;1.00;;;;;;5114857;28;20153;-77
2023/05/16 09:40:11;;;;;;;4.32;2.40;;;13.80;1.00;;;;;;5114606;28;20211;-78
2023/05/16 09:42:37;;;;;;;9.07;2.70;;;14.70;99.90;;;;;;5113170;28;20196;-78
2023/05/16 09:45:04;;;;;;;6.38;2.78;;;15.10;92.60;;;;;;5114538;28;20210;-78
2023/05/16 09:47:29;;;;;;;5.20;2.60;;;14.90;99.90;;;;;;5113114;28;20582;-78
2023/05/16 09:49:55;;;;;;;6.00;2.70;;;14.70;1.00;;;;;;5114923;28;20197;-79
2023/05/16 09:52:21;;;;;;;4.60;2.50;;;14.40;8.10;;;;;;5113186;28;20176;-79
2023/05/16 09:54:48;;;;;;;8.45;2.67;;;14.20;1.00;;;;;;5113934;28;20575;-79
2023/05/16 09:57:18;;;;;;;7.70;2.95;;;14.20;1.00;;;;;;5115322;28;20168;-80
2023/05/16 09:59:44;;;;;;;6.85;3.17;;;14.00;95.30;;;;;;5113920;28;20257;-80
2023/05/16 10:02:12;;;;;;;4.28;2.83;;;13.60;1.00;;;;;;5115246;28;20718;-79
2023/05/16 10:04:38;;;;;;;7.90;3.05;;;13.30;1.00;;;;;;5116611;28;20208;-79
2023/05/16 10:07:05;;;;;;;4.40;2.60;;;13.00;1.00;;;;;;5095844;28;20169;-79
2023/05/16 10:09:35;;;;;;;8.38;3.00;;;12.80;99.90;;;;;;5096776;28;20656;-79
2023/05/16 10:12:03;;;;;;;7.43;3.45;;;12.70;1.00;;;;;;5095412;28;20248;-78
2023/05/16 10:14:32;;;;;;;8.38;3.40;;;13.20;1.00;;;;;;5094316;28;20173;-78
2023/05/16 10:16:59;;;;;;;7.38;3.38;;;13.30;1.00;;;;;;5095454;28;20181;-79
2023/05/16 10:19:32;;;;;;;5.90;2.80;;;13.50;1.00;;;;;;5095523;28;20215;-79
2023/05/16 10:22:01;;;;;;;6.40;3.03;;;14.00;99.90;;;;;;5095258;28;20561;-78
2023/05/16 10:24:51;;;;;;;5.20;2.90;;;14.80;1.00;;;;;;5093664;28;20549;-77
2023/05/16 10:27:17;;;;;;;5.13;2.47;;;15.10;99.90;;;;;;5093495;28;20551;-77
2023/05/16 10:29:43;;;;;;;5.78;2.67;;;15.20;99.90;;;;;;5093849;28;20169;-77
2023/05/16 10:32:13;;;;;;;7.55;2.65;;;15.10;1.00;;;;;;5092648;28;20177;-77
2023/05/16 10:34:42;;;;;;;6.00;3.00;;;14.70;1.00;;;;;;5092623;28;20287;-77
2023/05/16 10:37:08;;;;;;;7.90;2.70;;;14.30;99.90;;;;;;5117354;28;20251;-77
2023/05/16 10:39:37;;;;;;;7.03;2.70;;;14.20;51.60;;;;;;5117458;28;20309;-77
2023/05/16 10:42:10;;;;;;;9.18;3.08;;;14.00;1.00;;;;;;5117595;28;20188;-77
2023/05/16 10:44:38;;;;;;;8.15;2.75;;;13.80;1.00;;;;;;5117374;28;20219;-77
2023/05/16 10:47:06;;;;;;;7.15;2.92;;;13.80;1.00;;;;;;5117259;28;20207;-77
2023/05/16 10:49:32;;;;;;;8.13;2.80;;;13.80;99.90;;;;;;5116194;28;20175;-77
2023/05/16 10:52:12;;;;;;;6.03;2.65;;;13.70;99.90;;;;;;5116061;28;20172;-77
2023/05/16 10:54:43;;;;;;;6.90;3.00;;;13.70;1.00;;;;;;5116291;28;20226;-77
2023/05/16 10:57:22;;;;;;;5.38;2.80;;;13.60;14.90;;;;;;5117160;28;20163;-77
2023/05/16 10:59:53;;;;;;;3.97;2.58;;;13.40;1.00;;;;;;5115774;28;20538;-77
2023/05/16 11:02:33;;;;;;;5.30;2.85;;;13.30;1.00;;;;;;5115729;28;20179;-76
2023/05/16 11:05:05;;;;;;;4.68;2.78;;;13.50;99.90;;;;;;5113572;28;20303;-77
2023/05/16 11:07:35;;;;;;;3.60;2.67;;;14.00;1.00;;;;;;5096852;28;20161;-77
2023/05/16 11:10:10;;;;;;;7.07;2.55;;;14.40;99.90;;;;;;5096838;28;20203;-77
2023/05/16 11:12:43;;;;;;;7.25;3.03;;;14.90;1.00;;;;;;5096459;28;20164;-77
2023/05/16 11:15:19;;;;;;;4.80;2.60;;;15.40;99.90;;;;;;5096542;28;20188;-77
2023/05/16 11:17:45;;;;;;;5.78;3.00;;;15.60;1.00;;;;;;5096853;28;20237;-74
2023/05/16 11:20:37;;;;;;;5.30;2.60;;;15.60;99.90;;;;;;5097186;28;20264;-74
2023/05/16 11:23:20;;;;;;;4.93;2.80;;;15.40;1.00;;;;;;5096834;28;20169;-76
2023/05/16 11:25:59;;;;;;;4.65;2.75;;;14.80;1.00;;;;;;5097389;28;20212;-75
2023/05/16 11:28:25;;;;;;;5.53;2.78;;;14.60;1.00;;;;;;5094777;28;20192;-76
2023/05/16 11:30:58;;;;;;;6.28;3.33;;;14.50;99.90;;;;;;5096138;28;20210;-74
2023/05/16 11:33:24;;;;;;;4.45;2.50;;;14.40;1.00;;;;;;5096935;28;20184;-77
2023/05/16 11:36:07;;;;;;;4.32;2.55;;;14.50;1.00;;;;;;5105283;28;20201;-74
2023/05/16 11:38:33;;;;;;;11.45;3.15;;;14.70;99.90;;;;;;5116335;28;20205;-74
2023/05/16 11:41:06;;;;;;;5.40;2.85;;;14.90;21.20;;;;;;5114461;28;20246;-75
2023/05/16 11:43:42;;;;;;;5.90;3.13;;;15.30;1.00;;;;;;5116499;28;20164;-74
2023/05/16 11:46:15;;;;;;;5.43;2.50;;;15.60;1.00;;;;;;5115448;28;20185;-73
2023/05/16 11:48:41;;;;;;;7.60;2.90;;;15.90;1.00;;;;;;5116503;28;20213;-75
2023/05/16 11:51:08;;;;;;;5.65;2.95;;;15.80;1.00;;;;;;5115473;28;20172;-76
2023/05/16 11:53:34;;;;;;;6.82;2.90;;;15.50;99.90;;;;;;5116450;28;20169;-76
2023/05/16 11:56:01;;;;;;;4.95;2.70;;;15.20;1.00;;;;;;5115015;28;20195;-76
2023/05/16 11:58:27;;;;;;;9.15;3.03;;;15.20;1.00;;;;;;5114975;28;20176;-75
2023/05/16 12:00:53;;;;;;;6.75;2.63;;;14.80;99.90;;;;;;5114817;28;20173;-75
2023/05/16 12:03:19;;;;;;;6.57;2.72;;;14.50;26.60;;;;;;5115893;28;20597;-76
2023/05/16 12:05:59;;;;;;;8.77;2.83;;;14.30;79.90;;;;;;5104534;28;20223;-76
2023/05/16 12:08:25;;;;;;;6.68;2.92;;;14.00;1.00;;;;;;5094311;28;20683;-76
2023/05/16 12:10:52;;;;;;;7.07;2.45;;;13.90;1.00;;;;;;5095441;28;20201;-76
2023/05/16 12:13:20;;;;;;;7.78;2.40;;;13.80;1.00;;;;;;5095255;28;20169;-76
2023/05/16 12:15:46;;;;;;;5.90;2.65;;;13.70;1.00;;;;;;5093774;28;20200;-75
2023/05/16 12:18:13;;;;;;;4.93;2.85;;;13.50;1.00;;;;;;5095133;28;20165;-76
2023/05/16 12:20:39;;;;;;;6.30;3.00;;;13.50;99.90;;;;;;5094808;28;20177;-76
2023/05/16 12:23:20;;;;;;;4.72;3.05;;;13.40;28.30;;;;;;5095576;28;20172;-75
2023/05/16 12:25:49;;;;;;;5.05;2.70;;;13.30;44.50;;;;;;5094488;28;20204;-75
2023/05/16 12:28:15;;;;;;;4.40;2.50;;;13.20;99.90;;;;;;5093639;28;20177;-75
2023/05/16 12:30:43;;;;;;;6.25;2.70;;;13.30;99.90;;;;;;5093577;28;20177;-75
2023/05/16 12:33:10;;;;;;;4.57;2.60;;;13.40;48.00;;;;;;5094608;28;20219;-76
2023/05/16 12:35:41;;;;;;;7.68;2.70;;;13.40;99.90;;;;;;5101846;28;20250;-76
2023/05/16 12:38:08;;;;;;;5.13;2.75;;;13.60;1.00;;;;;;5115051;28;20194;-75
2023/05/16 12:40:39;;;;;;;8.45;2.83;;;14.00;99.90;;;;;;5113606;28;20337;-76
2023/05/16 12:43:13;;;;;;;7.53;3.00;;;14.50;99.90;;;;;;5115328;28;20545;-75
2023/05/16 12:45:40;;;;;;;5.78;2.50;;;14.70;99.90;;;;;;5114815;28;20256;-75
2023/05/16 12:48:12;;;;;;;6.43;2.70;;;15.20;1.00;;;;;;5114825;28;20172;-75